sensor_id;sensor_type;location;lat;lon;timestamp;P1;durP1;ratioP1;P2;durP2;ratioP2
14858;SDS011;7521;51.700;6.874;2023-01-10T00:02:21;16.03;;;8.70;;
14858;SDS011;7521;51.700;6.874;2023-01-10T00:05:26;17.40;;;8.83;;
14858;SDS011;7521;51.700;6.874;2023-01-10T00:08:31;18.60;;;9.70;;
14858;SDS011;7521;51.700;6.874;2023-01-10T00:11:36;20.50;;;12.00;;
14858;SDS011;7521;51.700;6.874;2023-01-10T00:15:00;26.53;;;12.17;;
14858;SDS011;7521;51.700;6.874;2023-01-10T00:18:05;25.35;;;15.23;;
14858;SDS011;7521;51.700;6.874;2023-01-10T00:21:10;22.30;;;13.23;;
14858;SDS011;7521;51.700;6.874;2023-01-10T00:24:16;24.13;;;11.90;;
14858;SDS011;7521;51.700;6.874;2023-01-10T00:27:24;25.57;;;11.23;;
14858;SDS011;7521;51.700;6.874;2023-01-10T00:30:29;21.13;;;9.90;;
14858;SDS011;7521;51.700;6.874;2023-01-10T00:33:35;23.77;;;9.63;;
14858;SDS011;7521;51.700;6.874;2023-01-10T00:36:40;17.83;;;10.07;;
14858;SDS011;7521;51.700;6.874;2023-01-10T00:39:46;24.90;;;11.37;;
14858;SDS011;7521;51.700;6.874;2023-01-10T00:42:51;23.43;;;9.23;;
14858;SDS011;7521;51.700;6.874;2023-01-10T00:46:15;22.63;;;9.33;;
14858;SDS011;7521;51.700;6.874;2023-01-10T00:49:20;22.83;;;7.68;;
14858;SDS011;7521;51.700;6.874;2023-01-10T00:52:25;27.50;;;8.13;;
14858;SDS011;7521;51.700;6.874;2023-01-10T00:55:31;19.70;;;6.75;;
14858;SDS011;7521;51.700;6.874;2023-01-10T00:58:36;19.50;;;6.87;;
14858;SDS011;7521;51.700;6.874;2023-01-10T01:01:41;16.75;;;6.38;;
14858;SDS011;7521;51.700;6.874;2023-01-10T01:04:46;19.70;;;7.15;;
14858;SDS011;7521;51.700;6.874;2023-01-10T01:07:52;19.13;;;7.55;;
14858;SDS011;7521;51.700;6.874;2023-01-10T01:10:57;18.00;;;6.70;;
14858;SDS011;7521;51.700;6.874;2023-01-10T01:14:02;16.98;;;6.68;;
14858;SDS011;7521;51.700;6.874;2023-01-10T01:17:08;17.70;;;5.93;;
14858;SDS011;7521;51.700;6.874;2023-01-10T01:20:13;19.92;;;6.43;;
14858;SDS011;7521;51.700;6.874;2023-01-10T01:23:18;14.80;;;6.10;;
14858;SDS011;7521;51.700;6.874;2023-01-10T01:26:23;12.60;;;5.80;;
14858;SDS011;7521;51.700;6.874;2023-01-10T01:29:29;15.77;;;5.77;;
14858;SDS011;7521;51.700;6.874;2023-01-10T01:32:34;14.35;;;5.72;;
14858;SDS011;7521;51.700;6.874;2023-01-10T01:35:42;20.93;;;7.10;;
14858;SDS011;7521;51.700;6.874;2023-01-10T01:38:48;22.23;;;8.00;;
14858;SDS011;7521;51.700;6.874;2023-01-10T01:41:53;19.23;;;8.80;;
14858;SDS011;7521;51.700;6.874;2023-01-10T01:45:05;15.50;;;7.80;;
14858;SDS011;7521;51.700;6.874;2023-01-10T01:51:23;18.37;;;6.67;;
14858;SDS011;7521;51.700;6.874;2023-01-10T01:54:30;22.03;;;6.70;;
14858;SDS011;7521;51.700;6.874;2023-01-10T01:57:36;15.90;;;5.47;;
14858;SDS011;7521;51.700;6.874;2023-01-10T02:00:41;17.57;;;5.23;;
14858;SDS011;7521;51.700;6.874;2023-01-10T02:03:53;13.07;;;4.57;;
14858;SDS011;7521;51.700;6.874;2023-01-10T02:07:00;19.20;;;4.87;;
14858;SDS011;7521;51.700;6.874;2023-01-10T02:13:30;21.47;;;6.80;;
14858;SDS011;7521;51.700;6.874;2023-01-10T02:16:37;26.87;;;7.27;;
14858;SDS011;7521;51.700;6.874;2023-01-10T02:26:25;19.77;;;7.13;;
14858;SDS011;7521;51.700;6.874;2023-01-10T02:29:46;18.00;;;6.43;;
14858;SDS011;7521;51.700;6.874;2023-01-10T02:32:59;18.97;;;6.07;;
14858;SDS011;7521;51.700;6.874;2023-01-10T02:39:37;16.03;;;4.50;;
14858;SDS011;7521;51.700;6.874;2023-01-10T02:46:12;19.07;;;5.60;;
14858;SDS011;7521;51.700;6.874;2023-01-10T02:49:18;16.80;;;6.00;;
14858;SDS011;7521;51.700;6.874;2023-01-10T02:52:25;18.47;;;5.33;;
14858;SDS011;7521;51.700;6.874;2023-01-10T02:55:35;17.63;;;4.17;;
14858;SDS011;7521;51.700;6.874;2023-01-10T03:08:17;16.07;;;5.70;;
14858;SDS011;7521;51.700;6.874;2023-01-10T03:11:26;26.90;;;10.17;;
14858;SDS011;7521;51.700;6.874;2023-01-10T03:14:44;23.67;;;8.00;;
14858;SDS011;7521;51.700;6.874;2023-01-10T03:17:50;21.57;;;6.80;;
14858;SDS011;7521;51.700;6.874;2023-01-10T03:20:58;21.63;;;7.70;;
14858;SDS011;7521;51.700;6.874;2023-01-10T03:24:11;22.30;;;8.60;;
14858;SDS011;7521;51.700;6.874;2023-01-10T03:33:31;23.03;;;6.77;;
14858;SDS011;7521;51.700;6.874;2023-01-10T03:43:01;14.50;;;4.47;;
14858;SDS011;7521;51.700;6.874;2023-01-10T03:49:44;21.20;;;5.97;;
14858;SDS011;7521;51.700;6.874;2023-01-10T03:52:51;23.13;;;6.87;;
14858;SDS011;7521;51.700;6.874;2023-01-10T03:55:57;29.23;;;8.83;;
14858;SDS011;7521;51.700;6.874;2023-01-10T03:59:03;19.33;;;7.43;;
14858;SDS011;7521;51.700;6.874;2023-01-10T04:02:08;21.17;;;7.40;;
14858;SDS011;7521;51.700;6.874;2023-01-10T04:05:13;20.38;;;7.53;;
14858;SDS011;7521;51.700;6.874;2023-01-10T04:08:19;27.53;;;7.77;;
14858;SDS011;7521;51.700;6.874;2023-01-10T04:11:24;24.57;;;7.40;;
14858;SDS011;7521;51.700;6.874;2023-01-10T04:14:29;23.48;;;8.23;;
14858;SDS011;7521;51.700;6.874;2023-01-10T04:17:36;23.40;;;7.97;;
14858;SDS011;7521;51.700;6.874;2023-01-10T04:20:41;15.40;;;6.55;;
14858;SDS011;7521;51.700;6.874;2023-01-10T04:23:46;19.08;;;6.05;;
14858;SDS011;7521;51.700;6.874;2023-01-10T04:26:52;24.27;;;6.77;;
14858;SDS011;7521;51.700;6.874;2023-01-10T04:29:57;20.27;;;7.03;;
14858;SDS011;7521;51.700;6.874;2023-01-10T04:33:02;21.73;;;9.15;;
14858;SDS011;7521;51.700;6.874;2023-01-10T04:36:07;16.77;;;8.60;;
14858;SDS011;7521;51.700;6.874;2023-01-10T04:39:13;25.03;;;11.17;;
14858;SDS011;7521;51.700;6.874;2023-01-10T04:42:18;32.13;;;11.87;;
14858;SDS011;7521;51.700;6.874;2023-01-10T04:45:23;25.03;;;10.50;;
14858;SDS011;7521;51.700;6.874;2023-01-10T04:48:28;25.63;;;10.70;;
14858;SDS011;7521;51.700;6.874;2023-01-10T04:51:34;27.43;;;10.80;;
14858;SDS011;7521;51.700;6.874;2023-01-10T04:54:39;31.33;;;12.00;;
14858;SDS011;7521;51.700;6.874;2023-01-10T04:57:44;26.60;;;11.27;;
14858;SDS011;7521;51.700;6.874;2023-01-10T05:00:49;21.50;;;10.33;;
14858;SDS011;7521;51.700;6.874;2023-01-10T05:03:56;32.87;;;9.97;;
14858;SDS011;7521;51.700;6.874;2023-01-10T05:07:01;29.60;;;8.33;;
14858;SDS011;7521;51.700;6.874;2023-01-10T05:10:07;26.33;;;7.83;;
14858;SDS011;7521;51.700;6.874;2023-01-10T05:13:12;22.60;;;6.47;;
14858;SDS011;7521;51.700;6.874;2023-01-10T05:16:18;19.67;;;5.30;;
14858;SDS011;7521;51.700;6.874;2023-01-10T05:19:23;22.98;;;6.22;;
14858;SDS011;7521;51.700;6.874;2023-01-10T05:22:28;24.75;;;6.05;;
14858;SDS011;7521;51.700;6.874;2023-01-10T05:25:33;24.70;;;6.70;;
14858;SDS011;7521;51.700;6.874;2023-01-10T05:28:39;19.80;;;7.00;;
14858;SDS011;7521;51.700;6.874;2023-01-10T05:31:46;28.30;;;6.77;;
14858;SDS011;7521;51.700;6.874;2023-01-10T05:34:54;19.00;;;5.57;;
14858;SDS011;7521;51.700;6.874;2023-01-10T05:37:59;21.93;;;6.70;;
14858;SDS011;7521;51.700;6.874;2023-01-10T05:41:04;26.73;;;5.37;;
14858;SDS011;7521;51.700;6.874;2023-01-10T05:44:10;26.80;;;4.30;;
14858;SDS011;7521;51.700;6.874;2023-01-10T05:47:15;20.25;;;3.67;;
14858;SDS011;7521;51.700;6.874;2023-01-10T05:50:20;17.52;;;4.55;;
14858;SDS011;7521;51.700;6.874;2023-01-10T05:53:26;17.08;;;4.20;;
14858;SDS011;7521;51.700;6.874;2023-01-10T05:56:31;25.90;;;4.50;;
14858;SDS011;7521;51.700;6.874;2023-01-10T05:59:36;15.43;;;3.50;;
14858;SDS011;7521;51.700;6.874;2023-01-10T06:02:41;16.58;;;3.92;;
14858;SDS011;7521;51.700;6.874;2023-01-10T06:05:46;25.23;;;5.10;;
14858;SDS011;7521;51.700;6.874;2023-01-10T06:08:52;14.87;;;3.43;;
14858;SDS011;7521;51.700;6.874;2023-01-10T06:11:59;18.60;;;4.00;;
14858;SDS011;7521;51.700;6.874;2023-01-10T06:15:05;21.53;;;3.60;;
14858;SDS011;7521;51.700;6.874;2023-01-10T06:18:11;18.93;;;3.90;;
14858;SDS011;7521;51.700;6.874;2023-01-10T06:21:16;17.93;;;4.87;;
14858;SDS011;7521;51.700;6.874;2023-01-10T06:24:21;16.90;;;4.00;;
14858;SDS011;7521;51.700;6.874;2023-01-10T06:27:27;18.53;;;3.90;;
14858;SDS011;7521;51.700;6.874;2023-01-10T06:30:32;16.23;;;4.03;;
14858;SDS011;7521;51.700;6.874;2023-01-10T06:33:39;23.93;;;3.60;;
14858;SDS011;7521;51.700;6.874;2023-01-10T06:36:45;17.90;;;3.13;;
14858;SDS011;7521;51.700;6.874;2023-01-10T06:39:50;18.17;;;3.28;;
14858;SDS011;7521;51.700;6.874;2023-01-10T06:42:55;21.23;;;4.20;;
14858;SDS011;7521;51.700;6.874;2023-01-10T06:46:01;16.33;;;3.83;;
14858;SDS011;7521;51.700;6.874;2023-01-10T06:49:06;23.13;;;3.90;;
14858;SDS011;7521;51.700;6.874;2023-01-10T06:52:11;30.47;;;4.13;;
14858;SDS011;7521;51.700;6.874;2023-01-10T06:55:16;18.75;;;4.20;;
14858;SDS011;7521;51.700;6.874;2023-01-10T06:58:22;23.60;;;5.55;;
14858;SDS011;7521;51.700;6.874;2023-01-10T07:01:27;19.37;;;3.97;;
14858;SDS011;7521;51.700;6.874;2023-01-10T07:04:32;21.98;;;4.47;;
14858;SDS011;7521;51.700;6.874;2023-01-10T07:07:37;23.10;;;3.67;;
14858;SDS011;7521;51.700;6.874;2023-01-10T07:10:43;21.60;;;3.60;;
14858;SDS011;7521;51.700;6.874;2023-01-10T07:13:48;16.57;;;3.60;;
14858;SDS011;7521;51.700;6.874;2023-01-10T07:16:53;21.30;;;4.43;;
14858;SDS011;7521;51.700;6.874;2023-01-10T07:19:58;19.42;;;4.47;;
14858;SDS011;7521;51.700;6.874;2023-01-10T07:23:03;17.45;;;6.03;;
14858;SDS011;7521;51.700;6.874;2023-01-10T07:26:10;26.15;;;6.25;;
14858;SDS011;7521;51.700;6.874;2023-01-10T07:29:15;27.00;;;6.50;;
14858;SDS011;7521;51.700;6.874;2023-01-10T07:32:20;20.40;;;7.17;;
14858;SDS011;7521;51.700;6.874;2023-01-10T07:35:25;19.00;;;5.25;;
14858;SDS011;7521;51.700;6.874;2023-01-10T07:38:31;19.20;;;4.47;;
14858;SDS011;7521;51.700;6.874;2023-01-10T07:41:36;21.33;;;5.03;;
14858;SDS011;7521;51.700;6.874;2023-01-10T07:44:41;21.60;;;4.65;;
14858;SDS011;7521;51.700;6.874;2023-01-10T07:47:46;21.65;;;5.03;;
14858;SDS011;7521;51.700;6.874;2023-01-10T07:50:58;21.10;;;4.22;;
14858;SDS011;7521;51.700;6.874;2023-01-10T07:54:03;23.00;;;4.33;;
14858;SDS011;7521;51.700;6.874;2023-01-10T07:57:09;20.33;;;4.03;;
14858;SDS011;7521;51.700;6.874;2023-01-10T08:00:14;21.45;;;3.90;;
14858;SDS011;7521;51.700;6.874;2023-01-10T08:03:19;26.67;;;4.10;;
14858;SDS011;7521;51.700;6.874;2023-01-10T08:06:26;19.33;;;3.73;;
14858;SDS011;7521;51.700;6.874;2023-01-10T08:09:31;21.42;;;4.40;;
14858;SDS011;7521;51.700;6.874;2023-01-10T08:12:36;18.33;;;3.92;;
14858;SDS011;7521;51.700;6.874;2023-01-10T08:15:41;27.17;;;3.67;;
14858;SDS011;7521;51.700;6.874;2023-01-10T08:18:46;21.40;;;4.18;;
14858;SDS011;7521;51.700;6.874;2023-01-10T08:21:53;20.57;;;3.73;;
14858;SDS011;7521;51.700;6.874;2023-01-10T08:24:58;22.73;;;4.00;;
14858;SDS011;7521;51.700;6.874;2023-01-10T08:28:03;20.70;;;4.47;;
14858;SDS011;7521;51.700;6.874;2023-01-10T08:31:08;24.47;;;3.77;;
14858;SDS011;7521;51.700;6.874;2023-01-10T08:34:14;24.27;;;4.30;;
14858;SDS011;7521;51.700;6.874;2023-01-10T08:37:19;19.60;;;4.00;;
14858;SDS011;7521;51.700;6.874;2023-01-10T08:40:25;29.25;;;5.28;;
14858;SDS011;7521;51.700;6.874;2023-01-10T08:43:30;26.03;;;4.40;;
14858;SDS011;7521;51.700;6.874;2023-01-10T08:46:35;24.07;;;3.97;;
14858;SDS011;7521;51.700;6.874;2023-01-10T08:49:41;26.10;;;5.03;;
14858;SDS011;7521;51.700;6.874;2023-01-10T08:52:46;27.08;;;4.28;;
14858;SDS011;7521;51.700;6.874;2023-01-10T08:55:51;24.42;;;4.40;;
14858;SDS011;7521;51.700;6.874;2023-01-10T08:58:56;21.50;;;4.53;;
14858;SDS011;7521;51.700;6.874;2023-01-10T09:02:01;18.08;;;4.20;;
14858;SDS011;7521;51.700;6.874;2023-01-10T09:05:09;24.43;;;4.90;;
14858;SDS011;7521;51.700;6.874;2023-01-10T09:08:14;20.07;;;4.00;;
14858;SDS011;7521;51.700;6.874;2023-01-10T09:11:19;20.60;;;4.53;;
14858;SDS011;7521;51.700;6.874;2023-01-10T09:14:24;24.47;;;5.50;;
14858;SDS011;7521;51.700;6.874;2023-01-10T09:17:30;29.67;;;6.00;;
14858;SDS011;7521;51.700;6.874;2023-01-10T09:20:36;33.42;;;5.15;;
14858;SDS011;7521;51.700;6.874;2023-01-10T09:23:41;29.90;;;4.83;;
14858;SDS011;7521;51.700;6.874;2023-01-10T09:26:47;18.77;;;4.60;;
14858;SDS011;7521;51.700;6.874;2023-01-10T09:29:52;23.02;;;4.85;;
14858;SDS011;7521;51.700;6.874;2023-01-10T09:32:58;28.90;;;5.28;;
14858;SDS011;7521;51.700;6.874;2023-01-10T09:36:03;24.57;;;4.30;;
14858;SDS011;7521;51.700;6.874;2023-01-10T09:39:08;27.37;;;4.73;;
14858;SDS011;7521;51.700;6.874;2023-01-10T09:42:25;21.58;;;4.20;;
14858;SDS011;7521;51.700;6.874;2023-01-10T09:45:43;20.37;;;4.40;;
14858;SDS011;7521;51.700;6.874;2023-01-10T09:49:02;26.03;;;5.13;;
14858;SDS011;7521;51.700;6.874;2023-01-10T09:52:30;22.40;;;4.47;;
14858;SDS011;7521;51.700;6.874;2023-01-10T09:55:37;30.20;;;4.77;;
14858;SDS011;7521;51.700;6.874;2023-01-10T09:58:43;24.83;;;5.43;;
14858;SDS011;7521;51.700;6.874;2023-01-10T10:01:49;28.03;;;5.13;;
14858;SDS011;7521;51.700;6.874;2023-01-10T10:05:30;20.13;;;6.27;;
14858;SDS011;7521;51.700;6.874;2023-01-10T10:08:31;25.17;;;4.90;;
14858;SDS011;7521;51.700;6.874;2023-01-10T10:18:14;21.53;;;4.90;;
14858;SDS011;7521;51.700;6.874;2023-01-10T10:24:46;23.23;;;5.25;;
14858;SDS011;7521;51.700;6.874;2023-01-10T10:28:04;28.33;;;5.97;;
14858;SDS011;7521;51.700;6.874;2023-01-10T10:31:23;28.03;;;4.67;;
14858;SDS011;7521;51.700;6.874;2023-01-10T10:37:46;24.97;;;4.87;;
14858;SDS011;7521;51.700;6.874;2023-01-10T10:40:52;25.57;;;4.73;;
14858;SDS011;7521;51.700;6.874;2023-01-10T10:43:59;27.40;;;5.33;;
14858;SDS011;7521;51.700;6.874;2023-01-10T10:47:15;21.70;;;5.20;;
14858;SDS011;7521;51.700;6.874;2023-01-10T10:50:30;24.80;;;4.47;;
14858;SDS011;7521;51.700;6.874;2023-01-10T10:53:36;27.57;;;5.07;;
14858;SDS011;7521;51.700;6.874;2023-01-10T10:56:41;20.40;;;4.03;;
14858;SDS011;7521;51.700;6.874;2023-01-10T10:59:47;23.40;;;4.37;;
14858;SDS011;7521;51.700;6.874;2023-01-10T11:02:55;26.77;;;5.30;;
14858;SDS011;7521;51.700;6.874;2023-01-10T11:06:02;22.40;;;4.70;;
14858;SDS011;7521;51.700;6.874;2023-01-10T11:09:07;26.73;;;4.37;;
14858;SDS011;7521;51.700;6.874;2023-01-10T11:12:12;19.23;;;4.77;;
14858;SDS011;7521;51.700;6.874;2023-01-10T11:15:35;20.47;;;4.37;;
14858;SDS011;7521;51.700;6.874;2023-01-10T11:18:40;19.03;;;4.03;;
14858;SDS011;7521;51.700;6.874;2023-01-10T11:21:47;24.00;;;5.35;;
14858;SDS011;7521;51.700;6.874;2023-01-10T11:24:54;19.97;;;3.97;;
14858;SDS011;7521;51.700;6.874;2023-01-10T11:28:00;23.37;;;4.53;;
14858;SDS011;7521;51.700;6.874;2023-01-10T11:31:05;25.27;;;5.03;;
14858;SDS011;7521;51.700;6.874;2023-01-10T11:37:26;27.10;;;5.10;;
14858;SDS011;7521;51.700;6.874;2023-01-10T11:40:36;24.57;;;5.20;;
14858;SDS011;7521;51.700;6.874;2023-01-10T11:43:44;26.50;;;5.33;;
14858;SDS011;7521;51.700;6.874;2023-01-10T11:46:51;25.63;;;4.65;;
14858;SDS011;7521;51.700;6.874;2023-01-10T11:49:58;24.60;;;5.13;;
14858;SDS011;7521;51.700;6.874;2023-01-10T11:53:04;20.87;;;5.03;;
14858;SDS011;7521;51.700;6.874;2023-01-10T11:56:11;20.67;;;3.90;;
14858;SDS011;7521;51.700;6.874;2023-01-10T11:59:18;26.97;;;4.63;;
14858;SDS011;7521;51.700;6.874;2023-01-10T12:05:28;25.08;;;5.10;;
14858;SDS011;7521;51.700;6.874;2023-01-10T12:08:34;28.30;;;6.13;;
14858;SDS011;7521;51.700;6.874;2023-01-10T12:11:40;27.33;;;4.93;;
14858;SDS011;7521;51.700;6.874;2023-01-10T12:14:46;23.33;;;4.63;;
14858;SDS011;7521;51.700;6.874;2023-01-10T12:17:51;21.60;;;4.33;;
14858;SDS011;7521;51.700;6.874;2023-01-10T12:20:57;15.63;;;4.43;;
14858;SDS011;7521;51.700;6.874;2023-01-10T12:24:17;24.63;;;5.03;;
14858;SDS011;7521;51.700;6.874;2023-01-10T12:27:25;26.67;;;5.47;;
14858;SDS011;7521;51.700;6.874;2023-01-10T12:33:37;28.85;;;4.78;;
14858;SDS011;7521;51.700;6.874;2023-01-10T12:36:48;23.83;;;4.70;;
14858;SDS011;7521;51.700;6.874;2023-01-10T12:40:02;23.80;;;4.70;;
14858;SDS011;7521;51.700;6.874;2023-01-10T12:43:16;20.20;;;4.70;;
14858;SDS011;7521;51.700;6.874;2023-01-10T12:46:42;23.20;;;4.20;;
14858;SDS011;7521;51.700;6.874;2023-01-10T12:49:59;24.10;;;3.97;;
14858;SDS011;7521;51.700;6.874;2023-01-10T12:56:12;18.40;;;3.72;;
14858;SDS011;7521;51.700;6.874;2023-01-10T13:02:26;20.17;;;4.97;;
14858;SDS011;7521;51.700;6.874;2023-01-10T13:05:32;24.10;;;4.73;;
14858;SDS011;7521;51.700;6.874;2023-01-10T13:08:37;20.00;;;4.27;;
14858;SDS011;7521;51.700;6.874;2023-01-10T13:11:44;24.50;;;4.90;;
14858;SDS011;7521;51.700;6.874;2023-01-10T13:18:03;22.87;;;5.33;;
14858;SDS011;7521;51.700;6.874;2023-01-10T13:21:09;22.87;;;5.37;;
14858;SDS011;7521;51.700;6.874;2023-01-10T13:24:22;23.13;;;4.80;;
14858;SDS011;7521;51.700;6.874;2023-01-10T13:27:31;21.60;;;4.23;;
14858;SDS011;7521;51.700;6.874;2023-01-10T13:30:37;26.27;;;5.07;;
14858;SDS011;7521;51.700;6.874;2023-01-10T13:36:51;20.40;;;4.05;;
14858;SDS011;7521;51.700;6.874;2023-01-10T13:39:59;25.73;;;4.67;;
14858;SDS011;7521;51.700;6.874;2023-01-10T13:46:34;20.67;;;3.93;;
14858;SDS011;7521;51.700;6.874;2023-01-10T13:49:40;17.67;;;3.40;;
14858;SDS011;7521;51.700;6.874;2023-01-10T13:52:46;23.57;;;4.07;;
14858;SDS011;7521;51.700;6.874;2023-01-10T13:55:54;21.63;;;4.00;;
14858;SDS011;7521;51.700;6.874;2023-01-10T13:59:00;17.87;;;4.00;;
14858;SDS011;7521;51.700;6.874;2023-01-10T14:02:25;17.10;;;4.13;;
14858;SDS011;7521;51.700;6.874;2023-01-10T14:05:35;25.37;;;4.20;;
14858;SDS011;7521;51.700;6.874;2023-01-10T14:08:42;17.27;;;3.00;;
14858;SDS011;7521;51.700;6.874;2023-01-10T14:11:56;18.27;;;4.23;;
14858;SDS011;7521;51.700;6.874;2023-01-10T14:15:04;18.43;;;3.77;;
14858;SDS011;7521;51.700;6.874;2023-01-10T14:18:20;16.33;;;3.83;;
14858;SDS011;7521;51.700;6.874;2023-01-10T14:21:27;14.67;;;3.77;;
14858;SDS011;7521;51.700;6.874;2023-01-10T14:24:40;15.67;;;3.20;;
14858;SDS011;7521;51.700;6.874;2023-01-10T14:27:47;18.60;;;3.40;;
14858;SDS011;7521;51.700;6.874;2023-01-10T14:31:04;15.43;;;2.87;;
14858;SDS011;7521;51.700;6.874;2023-01-10T14:34:12;23.60;;;3.13;;
14858;SDS011;7521;51.700;6.874;2023-01-10T14:37:25;13.80;;;2.80;;
14858;SDS011;7521;51.700;6.874;2023-01-10T14:40:39;11.73;;;2.60;;
14858;SDS011;7521;51.700;6.874;2023-01-10T14:43:52;19.83;;;3.23;;
14858;SDS011;7521;51.700;6.874;2023-01-10T14:46:58;21.37;;;3.43;;
14858;SDS011;7521;51.700;6.874;2023-01-10T14:50:21;18.77;;;3.20;;
14858;SDS011;7521;51.700;6.874;2023-01-10T14:53:28;16.43;;;3.33;;
14858;SDS011;7521;51.700;6.874;2023-01-10T14:56:40;19.90;;;4.43;;
14858;SDS011;7521;51.700;6.874;2023-01-10T14:59:46;23.43;;;3.93;;
14858;SDS011;7521;51.700;6.874;2023-01-10T15:02:52;17.57;;;3.17;;
14858;SDS011;7521;51.700;6.874;2023-01-10T15:05:57;15.45;;;3.28;;
14858;SDS011;7521;51.700;6.874;2023-01-10T15:09:02;14.33;;;3.60;;
14858;SDS011;7521;51.700;6.874;2023-01-10T15:12:08;13.57;;;3.17;;
14858;SDS011;7521;51.700;6.874;2023-01-10T15:15:16;21.80;;;3.90;;
14858;SDS011;7521;51.700;6.874;2023-01-10T15:21:41;16.30;;;3.47;;
14858;SDS011;7521;51.700;6.874;2023-01-10T15:24:57;12.93;;;3.23;;
14858;SDS011;7521;51.700;6.874;2023-01-10T15:31:34;11.87;;;2.90;;
14858;SDS011;7521;51.700;6.874;2023-01-10T15:34:40;14.03;;;3.23;;
14858;SDS011;7521;51.700;6.874;2023-01-10T15:37:49;23.30;;;3.47;;
14858;SDS011;7521;51.700;6.874;2023-01-10T15:41:01;13.13;;;2.40;;
14858;SDS011;7521;51.700;6.874;2023-01-10T15:47:51;14.20;;;2.83;;
14858;SDS011;7521;51.700;6.874;2023-01-10T15:50:59;12.87;;;2.70;;
14858;SDS011;7521;51.700;6.874;2023-01-10T15:57:25;11.23;;;3.13;;
14858;SDS011;7521;51.700;6.874;2023-01-10T16:00:31;10.93;;;3.30;;
14858;SDS011;7521;51.700;6.874;2023-01-10T16:03:46;14.27;;;2.87;;
14858;SDS011;7521;51.700;6.874;2023-01-10T16:06:53;16.83;;;3.40;;
14858;SDS011;7521;51.700;6.874;2023-01-10T16:10:06;16.53;;;3.07;;
14858;SDS011;7521;51.700;6.874;2023-01-10T16:13:14;15.63;;;3.43;;
14858;SDS011;7521;51.700;6.874;2023-01-10T16:16:32;13.30;;;2.93;;
14858;SDS011;7521;51.700;6.874;2023-01-10T16:19:37;15.80;;;2.87;;
14858;SDS011;7521;51.700;6.874;2023-01-10T16:22:43;14.18;;;3.08;;
14858;SDS011;7521;51.700;6.874;2023-01-10T16:25:49;19.17;;;3.73;;
14858;SDS011;7521;51.700;6.874;2023-01-10T16:28:54;20.80;;;3.57;;
14858;SDS011;7521;51.700;6.874;2023-01-10T16:32:00;16.40;;;3.33;;
14858;SDS011;7521;51.700;6.874;2023-01-10T16:35:05;20.03;;;3.80;;
14858;SDS011;7521;51.700;6.874;2023-01-10T16:38:10;20.17;;;4.27;;
14858;SDS011;7521;51.700;6.874;2023-01-10T16:41:16;25.43;;;5.67;;
14858;SDS011;7521;51.700;6.874;2023-01-10T16:44:40;17.23;;;4.70;;
14858;SDS011;7521;51.700;6.874;2023-01-10T16:47:45;20.33;;;5.50;;
14858;SDS011;7521;51.700;6.874;2023-01-10T16:50:51;17.43;;;3.17;;
14858;SDS011;7521;51.700;6.874;2023-01-10T16:54:02;20.40;;;3.87;;
14858;SDS011;7521;51.700;6.874;2023-01-10T16:57:20;15.43;;;3.43;;
14858;SDS011;7521;51.700;6.874;2023-01-10T17:00:46;19.27;;;3.67;;
14858;SDS011;7521;51.700;6.874;2023-01-10T17:04:02;13.83;;;3.90;;
14858;SDS011;7521;51.700;6.874;2023-01-10T17:07:08;17.07;;;2.97;;
14858;SDS011;7521;51.700;6.874;2023-01-10T17:10:19;22.37;;;3.97;;
14858;SDS011;7521;51.700;6.874;2023-01-10T17:16:57;16.33;;;3.63;;
14858;SDS011;7521;51.700;6.874;2023-01-10T17:20:05;12.03;;;3.27;;
14858;SDS011;7521;51.700;6.874;2023-01-10T17:23:14;15.73;;;3.30;;
14858;SDS011;7521;51.700;6.874;2023-01-10T17:26:25;13.97;;;3.20;;
14858;SDS011;7521;51.700;6.874;2023-01-10T17:29:34;19.17;;;3.93;;
14858;SDS011;7521;51.700;6.874;2023-01-10T17:32:42;17.93;;;3.17;;
14858;SDS011;7521;51.700;6.874;2023-01-10T17:35:47;14.07;;;3.47;;
14858;SDS011;7521;51.700;6.874;2023-01-10T17:38:53;18.10;;;3.58;;
14858;SDS011;7521;51.700;6.874;2023-01-10T17:41:58;21.93;;;3.20;;
14858;SDS011;7521;51.700;6.874;2023-01-10T17:45:04;13.87;;;3.10;;
14858;SDS011;7521;51.700;6.874;2023-01-10T17:48:10;15.40;;;3.80;;
14858;SDS011;7521;51.700;6.874;2023-01-10T17:51:20;18.93;;;3.60;;
14858;SDS011;7521;51.700;6.874;2023-01-10T17:54:27;12.37;;;2.90;;
14858;SDS011;7521;51.700;6.874;2023-01-10T17:57:33;13.37;;;2.80;;
14858;SDS011;7521;51.700;6.874;2023-01-10T18:00:42;11.53;;;3.10;;
14858;SDS011;7521;51.700;6.874;2023-01-10T18:03:47;9.77;;;2.63;;
14858;SDS011;7521;51.700;6.874;2023-01-10T18:06:54;10.80;;;2.73;;
14858;SDS011;7521;51.700;6.874;2023-01-10T18:09:59;16.13;;;3.20;;
14858;SDS011;7521;51.700;6.874;2023-01-10T18:13:04;8.15;;;2.40;;
14858;SDS011;7521;51.700;6.874;2023-01-10T18:16:09;13.40;;;2.75;;
14858;SDS011;7521;51.700;6.874;2023-01-10T18:19:14;14.35;;;2.95;;
14858;SDS011;7521;51.700;6.874;2023-01-10T18:22:20;13.15;;;3.00;;
14858;SDS011;7521;51.700;6.874;2023-01-10T18:25:53;8.83;;;1.93;;
14858;SDS011;7521;51.700;6.874;2023-01-10T18:28:59;13.83;;;2.13;;
14858;SDS011;7521;51.700;6.874;2023-01-10T18:32:04;9.20;;;2.35;;
14858;SDS011;7521;51.700;6.874;2023-01-10T18:35:10;11.52;;;2.88;;
14858;SDS011;7521;51.700;6.874;2023-01-10T18:38:15;13.70;;;3.40;;
14858;SDS011;7521;51.700;6.874;2023-01-10T18:41:20;14.00;;;4.10;;
14858;SDS011;7521;51.700;6.874;2023-01-10T18:44:25;11.20;;;2.87;;
14858;SDS011;7521;51.700;6.874;2023-01-10T18:47:30;9.27;;;2.63;;
14858;SDS011;7521;51.700;6.874;2023-01-10T18:50:36;9.10;;;2.90;;
14858;SDS011;7521;51.700;6.874;2023-01-10T18:53:41;11.97;;;3.10;;
14858;SDS011;7521;51.700;6.874;2023-01-10T18:56:46;7.70;;;2.40;;
14858;SDS011;7521;51.700;6.874;2023-01-10T18:59:53;8.53;;;2.67;;
14858;SDS011;7521;51.700;6.874;2023-01-10T19:02:58;10.20;;;2.57;;
14858;SDS011;7521;51.700;6.874;2023-01-10T19:06:11;10.80;;;2.17;;
14858;SDS011;7521;51.700;6.874;2023-01-10T19:09:18;8.20;;;2.30;;
14858;SDS011;7521;51.700;6.874;2023-01-10T19:12:28;9.30;;;2.30;;
14858;SDS011;7521;51.700;6.874;2023-01-10T19:15:55;5.93;;;2.43;;
14858;SDS011;7521;51.700;6.874;2023-01-10T19:19:25;8.53;;;2.17;;
14858;SDS011;7521;51.700;6.874;2023-01-10T19:26:33;8.63;;;2.63;;
14858;SDS011;7521;51.700;6.874;2023-01-10T19:29:50;4.77;;;2.10;;
14858;SDS011;7521;51.700;6.874;2023-01-10T19:33:01;5.83;;;2.17;;
14858;SDS011;7521;51.700;6.874;2023-01-10T19:36:38;3.77;;;1.80;;
14858;SDS011;7521;51.700;6.874;2023-01-10T19:40:01;7.37;;;2.17;;
14858;SDS011;7521;51.700;6.874;2023-01-10T19:43:27;8.10;;;1.87;;
14858;SDS011;7521;51.700;6.874;2023-01-10T19:46:58;5.07;;;1.97;;
14858;SDS011;7521;51.700;6.874;2023-01-10T19:53:52;6.93;;;2.20;;
14858;SDS011;7521;51.700;6.874;2023-01-10T19:57:16;7.17;;;2.03;;
14858;SDS011;7521;51.700;6.874;2023-01-10T20:03:57;6.90;;;2.17;;
14858;SDS011;7521;51.700;6.874;2023-01-10T20:07:02;5.50;;;2.20;;
14858;SDS011;7521;51.700;6.874;2023-01-10T20:10:08;3.60;;;1.87;;
14858;SDS011;7521;51.700;6.874;2023-01-10T20:13:13;4.90;;;2.47;;
14858;SDS011;7521;51.700;6.874;2023-01-10T20:16:19;7.00;;;2.20;;
14858;SDS011;7521;51.700;6.874;2023-01-10T20:19:25;5.43;;;2.17;;
14858;SDS011;7521;51.700;6.874;2023-01-10T20:22:30;6.70;;;2.08;;
14858;SDS011;7521;51.700;6.874;2023-01-10T20:25:36;7.38;;;2.28;;
14858;SDS011;7521;51.700;6.874;2023-01-10T20:28:41;7.70;;;2.20;;
14858;SDS011;7521;51.700;6.874;2023-01-10T20:31:47;6.23;;;2.23;;
14858;SDS011;7521;51.700;6.874;2023-01-10T20:34:56;5.50;;;2.10;;
14858;SDS011;7521;51.700;6.874;2023-01-10T20:38:01;5.35;;;2.05;;
14858;SDS011;7521;51.700;6.874;2023-01-10T20:41:11;3.60;;;2.17;;
14858;SDS011;7521;51.700;6.874;2023-01-10T20:44:17;6.60;;;2.40;;
14858;SDS011;7521;51.700;6.874;2023-01-10T20:47:22;8.40;;;2.50;;